createdAt,value
2023-03-06T00:00:06.919Z,24.45
2023-03-06T00:04:06.916Z,24.45
2023-03-06T00:08:06.887Z,24.48
2023-03-06T00:12:06.828Z,24.43
2023-03-06T00:16:06.819Z,24.45
2023-03-06T00:20:06.779Z,24.46
2023-03-06T00:24:06.689Z,24.43
2023-03-06T00:28:06.737Z,24.43
2023-03-06T00:32:06.922Z,24.43
2023-03-06T00:36:07.137Z,24.43
2023-03-06T00:40:07.122Z,24.42
2023-03-06T00:44:07.062Z,24.42
2023-03-06T00:48:07.036Z,24.42
2023-03-06T00:52:09.035Z,24.42
2023-03-06T00:56:06.977Z,24.43
2023-03-06T01:00:06.937Z,24.42
2023-03-06T01:04:07.090Z,24.39
2023-03-06T01:08:07.244Z,24.40
2023-03-06T01:12:07.415Z,24.38
2023-03-06T01:16:07.667Z,24.39
2023-03-06T01:20:07.807Z,24.38
2023-03-06T01:24:07.985Z,24.39
2023-03-06T01:28:08.195Z,24.40
2023-03-06T01:32:08.371Z,24.39
2023-03-06T01:36:08.539Z,24.38
2023-03-06T01:40:08.682Z,24.38
2023-03-06T01:44:08.890Z,24.36
2023-03-06T01:48:09.036Z,24.36
2023-03-06T01:52:09.152Z,24.39
2023-03-06T01:56:09.321Z,24.36
2023-03-06T02:00:09.506Z,24.39
2023-03-06T02:04:09.591Z,24.38
2023-03-06T02:08:09.679Z,24.35
2023-03-06T02:12:09.764Z,24.38
2023-03-06T02:16:09.866Z,24.38
2023-03-06T02:20:09.942Z,24.35
2023-03-06T02:24:10.032Z,24.35
2023-03-06T02:28:10.098Z,24.34
2023-03-06T02:32:10.149Z,24.34
2023-03-06T02:36:10.190Z,24.34
2023-03-06T02:40:10.312Z,24.32
2023-03-06T02:44:10.268Z,24.34
2023-03-06T02:48:10.281Z,24.34
2023-03-06T02:52:10.313Z,24.32
2023-03-06T02:56:10.416Z,24.34
2023-03-06T03:00:10.439Z,24.34
2023-03-06T03:04:10.529Z,24.32
2023-03-06T03:08:10.507Z,24.31
2023-03-06T03:12:10.525Z,24.32
2023-03-06T03:16:10.625Z,24.32
2023-03-06T03:20:10.622Z,24.31
2023-03-06T03:24:10.600Z,24.31
2023-03-06T03:28:10.632Z,24.31
2023-03-06T03:32:10.750Z,24.29
2023-03-06T03:36:10.761Z,24.29
2023-03-06T03:40:10.846Z,24.28
2023-03-06T03:44:10.857Z,24.29
2023-03-06T03:48:10.928Z,24.31
2023-03-06T03:52:10.952Z,24.28
2023-03-06T03:56:10.971Z,24.28
2023-03-06T04:00:11.006Z,24.25
2023-03-06T04:04:11.075Z,24.28
2023-03-06T04:08:11.148Z,24.27
2023-03-06T04:12:11.137Z,24.29
2023-03-06T04:16:11.218Z,24.28
2023-03-06T04:20:11.307Z,24.32
2023-03-06T04:24:11.441Z,24.34
2023-03-06T04:28:11.519Z,24.36
2023-03-06T04:32:11.741Z,24.34
2023-03-06T04:36:11.964Z,24.36
2023-03-06T04:40:12.167Z,24.40
2023-03-06T04:44:12.090Z,24.40
2023-03-06T04:48:12.084Z,24.42
2023-03-06T04:52:12.020Z,24.42
2023-03-06T04:56:11.988Z,24.42
2023-03-06T05:00:11.956Z,24.45
2023-03-06T05:04:11.948Z,24.46
2023-03-06T05:08:11.898Z,24.48
2023-03-06T05:12:11.873Z,24.48
2023-03-06T05:16:11.856Z,24.48
2023-03-06T05:20:11.844Z,24.51
2023-03-06T05:24:11.817Z,24.48
2023-03-06T05:28:11.797Z,24.51
2023-03-06T05:32:11.891Z,24.49
2023-03-06T05:36:11.686Z,24.52
2023-03-06T05:40:11.674Z,24.54
2023-03-06T05:44:11.617Z,24.49
2023-03-06T05:48:11.595Z,24.54
2023-03-06T05:52:11.565Z,24.52
2023-03-06T05:56:11.559Z,24.54
2023-03-06T06:00:11.484Z,24.54
2023-03-06T06:04:11.684Z,24.56
2023-03-06T06:08:11.664Z,24.56
2023-03-06T06:12:11.626Z,24.55
2023-03-06T06:16:11.726Z,24.56
2023-03-06T06:20:11.553Z,24.58
2023-03-06T06:24:11.494Z,24.59
2023-03-06T06:28:11.458Z,24.60
2023-03-06T06:32:11.544Z,24.59
2023-03-06T06:36:11.399Z,24.59
2023-03-06T06:40:11.341Z,24.62
2023-03-06T06:44:11.582Z,24.69
2023-03-06T06:48:11.700Z,24.80
2023-03-06T06:52:12.118Z,24.89
2023-03-06T06:56:11.711Z,24.95
2023-03-06T07:00:12.090Z,25.07
2023-03-06T07:04:12.241Z,25.15
2023-03-06T07:08:12.095Z,25.25
2023-03-06T07:12:11.706Z,25.34
2023-03-06T07:16:12.175Z,25.42
2023-03-06T07:20:11.618Z,25.48
2023-03-06T07:24:11.602Z,25.58
2023-03-06T07:28:11.577Z,25.59
2023-03-06T07:32:11.545Z,25.73
2023-03-06T07:36:12.928Z,25.77
2023-03-06T07:40:11.574Z,25.79
2023-03-06T07:44:11.664Z,25.86
2023-03-06T07:48:12.107Z,25.95
2023-03-06T07:52:12.141Z,26.01
2023-03-06T07:56:12.145Z,26.12
2023-03-06T08:00:12.149Z,26.00
2023-03-06T08:04:12.291Z,25.95
2023-03-06T08:08:12.264Z,25.96
2023-03-06T08:12:12.605Z,25.96
2023-03-06T08:16:12.186Z,26.04
2023-03-06T08:20:12.124Z,26.08
2023-03-06T08:24:12.164Z,26.12
2023-03-06T08:28:12.060Z,26.19
2023-03-06T08:32:12.051Z,26.28
2023-03-06T08:36:11.963Z,26.33
2023-03-06T08:40:12.222Z,26.37
2023-03-06T08:44:12.165Z,26.38
2023-03-06T08:48:11.857Z,26.45
2023-03-06T08:52:12.139Z,26.52
2023-03-06T08:56:11.757Z,26.51
2023-03-06T09:00:12.159Z,26.47
2023-03-06T09:04:11.717Z,26.47
2023-03-06T09:08:12.148Z,26.44
2023-03-06T09:12:11.605Z,26.44
2023-03-06T09:16:11.670Z,26.47
2023-03-06T09:20:11.557Z,26.50
2023-03-06T09:24:11.521Z,26.56
2023-03-06T09:28:12.316Z,26.59
2023-03-06T09:32:12.223Z,26.58
2023-03-06T09:36:11.399Z,26.61
2023-03-06T09:40:11.660Z,26.65
2023-03-06T09:44:11.671Z,26.68
2023-03-06T09:48:11.670Z,26.68
2023-03-06T09:52:11.703Z,26.75
2023-03-06T09:56:11.245Z,26.77
2023-03-06T10:00:12.147Z,26.72
2023-03-06T10:04:11.193Z,26.69
2023-03-06T10:08:11.669Z,26.72
2023-03-06T10:12:11.260Z,26.75
2023-03-06T10:16:11.362Z,26.78
2023-03-06T10:20:11.670Z,26.79
2023-03-06T10:24:11.293Z,26.82
2023-03-06T10:28:11.686Z,26.83
2023-03-06T10:32:11.308Z,26.85
2023-03-06T10:36:11.704Z,26.88
2023-03-06T10:40:11.753Z,26.89
2023-03-06T10:44:11.690Z,26.89
2023-03-06T10:48:11.528Z,26.90
2023-03-06T10:52:11.716Z,26.99
2023-03-06T10:56:11.692Z,26.88
2023-03-06T11:00:11.740Z,26.55
2023-03-06T11:04:11.954Z,26.48
2023-03-06T11:08:12.099Z,26.44
2023-03-06T11:12:12.210Z,26.47
2023-03-06T11:16:12.205Z,26.48
2023-03-06T11:20:12.189Z,26.44
2023-03-06T11:24:12.230Z,26.51
2023-03-06T11:28:12.176Z,26.55
2023-03-06T11:32:12.340Z,26.58
2023-03-06T11:36:12.410Z,26.63
2023-03-06T11:40:12.714Z,26.81
2023-03-06T11:44:12.767Z,26.89
2023-03-06T11:48:12.251Z,26.92
2023-03-06T11:52:12.351Z,26.97
2023-03-06T11:56:12.344Z,26.97
2023-03-06T12:00:12.402Z,26.95
2023-03-06T12:04:12.483Z,26.96
2023-03-06T12:08:12.557Z,26.95
2023-03-06T12:12:12.698Z,26.95
2023-03-06T12:16:12.702Z,26.93
2023-03-06T12:20:12.750Z,26.95
2023-03-06T12:24:12.834Z,26.92
2023-03-06T12:28:12.964Z,26.85
2023-03-06T12:32:13.443Z,26.93
2023-03-06T12:36:13.240Z,26.92
2023-03-06T12:40:13.226Z,26.96
2023-03-06T12:44:13.228Z,26.99
2023-03-06T12:48:13.317Z,27.03
2023-03-06T12:52:16.052Z,26.97
2023-03-06T12:56:13.326Z,26.95
2023-03-06T13:00:13.299Z,26.93
2023-03-06T13:04:13.277Z,26.89
2023-03-06T13:08:13.201Z,26.82
2023-03-06T13:12:13.269Z,26.86
2023-03-06T13:16:13.461Z,26.82
2023-03-06T13:20:13.702Z,26.90
2023-03-06T13:24:13.773Z,26.95
2023-03-06T13:28:13.588Z,26.96
2023-03-06T13:32:13.828Z,26.93
2023-03-06T13:36:13.648Z,26.92
2023-03-06T13:40:13.713Z,26.92
2023-03-06T13:44:13.750Z,26.88
2023-03-06T13:48:37.652Z,26.88
2023-03-06T13:52:14.783Z,26.89
2023-03-06T13:56:13.753Z,26.83
2023-03-06T14:00:13.723Z,26.82
2023-03-06T14:04:13.677Z,26.79
2023-03-06T14:08:13.625Z,26.81
2023-03-06T14:12:13.582Z,26.78
2023-03-06T14:16:13.731Z,26.75
2023-03-06T14:20:13.762Z,26.78
2023-03-06T14:24:13.809Z,26.75
2023-03-06T14:28:14.425Z,26.75
2023-03-06T14:32:13.986Z,26.78
2023-03-06T14:36:14.032Z,26.75
2023-03-06T14:40:14.061Z,26.78
2023-03-06T14:44:14.124Z,26.81
2023-03-06T14:48:14.179Z,26.79
2023-03-06T14:52:14.257Z,26.79
2023-03-06T14:56:14.324Z,26.83
2023-03-06T15:00:14.350Z,26.82
2023-03-06T15:04:14.787Z,26.85
2023-03-06T15:08:14.396Z,26.88
2023-03-06T15:12:14.432Z,26.90
2023-03-06T15:16:14.497Z,26.90
2023-03-06T15:20:14.530Z,26.92
2023-03-06T15:24:14.797Z,26.93
2023-03-06T15:28:14.548Z,26.90
2023-03-06T15:32:14.557Z,26.89
2023-03-06T15:36:14.583Z,26.88
2023-03-06T15:40:14.584Z,26.86
2023-03-06T15:44:14.610Z,26.85
2023-03-06T15:48:14.657Z,26.81
2023-03-06T15:52:14.677Z,26.79
2023-03-06T15:56:14.700Z,26.75
2023-03-06T16:00:26.689Z,26.72
2023-03-06T16:04:15.734Z,26.71
2023-03-06T16:08:14.709Z,26.67
2023-03-06T16:12:16.331Z,26.65
2023-03-06T16:16:14.617Z,26.58
2023-03-06T16:20:14.590Z,26.55
2023-03-06T16:24:14.608Z,26.52
2023-03-06T16:28:14.738Z,26.48
2023-03-06T16:32:14.862Z,26.44
2023-03-06T16:36:14.907Z,26.41
2023-03-06T16:40:15.001Z,26.40
2023-03-06T16:44:15.127Z,26.34
2023-03-06T16:48:15.240Z,26.31
2023-03-06T16:52:15.371Z,26.30
2023-03-06T16:56:15.481Z,26.26
2023-03-06T17:00:15.663Z,26.24
2023-03-06T17:04:15.748Z,26.21
2023-03-06T17:08:15.891Z,26.19
2023-03-06T17:12:15.992Z,26.17
2023-03-06T17:16:16.204Z,26.17
2023-03-06T17:20:16.274Z,26.14
2023-03-06T17:24:16.408Z,26.13
2023-03-06T17:28:16.557Z,26.10
2023-03-06T17:32:16.725Z,26.10
2023-03-06T17:36:16.819Z,26.07
2023-03-06T17:40:16.997Z,26.04
2023-03-06T17:44:17.163Z,26.04
2023-03-06T17:48:17.297Z,26.06
2023-03-06T17:52:17.509Z,26.00
2023-03-06T17:56:17.633Z,25.99
2023-03-06T18:00:17.822Z,25.99
2023-03-06T18:04:18.000Z,25.97
2023-03-06T18:08:18.250Z,25.95
2023-03-06T18:12:18.444Z,25.93
2023-03-06T18:16:18.717Z,25.90
2023-03-06T18:20:18.846Z,25.92
2023-03-06T18:24:19.027Z,25.89
2023-03-06T18:28:19.220Z,25.87
2023-03-06T18:32:19.467Z,25.87
2023-03-06T18:36:19.676Z,25.86
2023-03-06T18:40:19.852Z,25.83
2023-03-06T18:44:19.834Z,25.83
2023-03-06T18:48:19.814Z,25.80
2023-03-06T18:52:19.769Z,25.80
2023-03-06T18:56:19.742Z,25.79
2023-03-06T19:00:19.721Z,25.76
2023-03-06T19:04:20.447Z,25.79
2023-03-06T19:08:19.612Z,25.75
2023-03-06T19:12:19.603Z,25.76
2023-03-06T19:16:19.608Z,25.72
2023-03-06T19:20:19.540Z,25.73
2023-03-06T19:24:19.518Z,25.70
2023-03-06T19:28:19.475Z,25.69
2023-03-06T19:32:19.519Z,25.70
2023-03-06T19:36:19.397Z,25.66
2023-03-06T19:40:19.351Z,25.66
2023-03-06T19:44:19.306Z,25.68
2023-03-06T19:48:21.182Z,25.65
2023-03-06T19:52:19.266Z,25.65
2023-03-06T19:56:19.202Z,25.61
2023-03-06T20:00:19.162Z,25.61
2023-03-06T20:04:19.175Z,25.61
2023-03-06T20:08:19.085Z,25.59
2023-03-06T20:12:19.061Z,25.59
2023-03-06T20:16:19.036Z,25.59
2023-03-06T20:20:18.992Z,25.57
2023-03-06T20:24:18.974Z,25.57
2023-03-06T20:28:18.926Z,25.55
2023-03-06T20:32:18.906Z,25.57
2023-03-06T20:36:18.817Z,25.55
2023-03-06T20:40:18.883Z,25.53
2023-03-06T20:44:18.749Z,25.53
2023-03-06T20:48:18.741Z,25.53
2023-03-06T20:52:18.720Z,25.52
2023-03-06T20:56:18.643Z,25.49
2023-03-06T21:00:18.619Z,25.49
2023-03-06T21:04:18.557Z,25.48
2023-03-06T21:08:18.587Z,25.48
2023-03-06T21:12:18.486Z,25.48
2023-03-06T21:16:18.492Z,25.46
2023-03-06T21:20:18.443Z,25.45
2023-03-06T21:24:20.932Z,25.46
2023-03-06T21:28:18.376Z,25.45
2023-03-06T21:32:18.367Z,25.45
2023-03-06T21:36:18.301Z,25.45
2023-03-06T21:40:18.268Z,25.44
2023-03-06T21:44:18.217Z,25.45
2023-03-06T21:48:18.199Z,25.41
2023-03-06T21:52:18.146Z,25.41
2023-03-06T21:56:18.107Z,25.41
2023-03-06T22:00:18.113Z,25.41
2023-03-06T22:04:18.088Z,25.39
2023-03-06T22:08:18.007Z,25.38
2023-03-06T22:12:17.973Z,25.37
2023-03-06T22:16:17.991Z,25.37
2023-03-06T22:20:17.897Z,25.34
2023-03-06T22:24:17.863Z,25.37
2023-03-06T22:28:17.824Z,25.35
2023-03-06T22:32:17.909Z,25.34
2023-03-06T22:36:17.885Z,25.32
2023-03-06T22:40:17.832Z,25.32
2023-03-06T22:44:17.830Z,25.32
2023-03-06T22:48:17.756Z,25.32
2023-03-06T22:52:17.753Z,25.28
2023-03-06T22:56:17.705Z,25.32
2023-03-06T23:00:17.661Z,25.31
2023-03-06T23:04:17.659Z,25.31
2023-03-06T23:08:17.647Z,25.30
2023-03-06T23:12:17.576Z,25.31
2023-03-06T23:16:17.567Z,25.30
2023-03-06T23:20:17.507Z,25.27
2023-03-06T23:24:17.578Z,25.30
2023-03-06T23:28:17.619Z,25.27
2023-03-06T23:32:17.736Z,25.25
2023-03-06T23:36:17.749Z,25.25
2023-03-06T23:40:17.837Z,25.25
2023-03-06T23:44:17.912Z,25.24
2023-03-06T23:48:17.959Z,25.22
2023-03-06T23:52:18.066Z,25.20
2023-03-06T23:56:18.158Z,25.21
